Hovedside
METAR-TAF:

METAR-TAF

Lufthavner :

La Gomera, Spania

breddegrad: 28-01-47N, lengdegrad: 017-12-53W, høyde over havet: 218 m

Gjeldene værobservasjon

Denne rapporten ble laget for 34 minutter siden, klokken 21:00 UTC
Flau vind
Temperatur 26°C
Luftfuktighet 48%
Trykk 1017 hPa
Sikt 10 km eller mer
ingen skyer under 1500 m og ingen bygeskyer

METAR: GCGM 122100Z AUTO 00000KT CAVOK 26/14 Q1017 RMK R09/VRB01KT ARP/00000KT

Tid: 22:34 (21:34 UTC)

Varsel

Denne rapporten ble laget for 1 time og 34 minutter siden, klokken 20:00 UTC
Varsel gyldig fra 12. klokken 21 UTC til 13. klokken 21 UTC
Vind 5 kt fra skiftende retning
Sikt: 9000 m
Sannsynlighet 30% :
Midlertidig
fra 13. klokken 08 UTC til 13. klokken 12 UTC
Vind 10 kt fra Vest

TAF: GCGM 122000Z 1221/1321 VRB05KT 9000 NSC TX29/1314Z TN20/1306Z PROB30 TEMPO 1308/1312 26010KT

Værobservasjoner og værvarsel for over 4000 flyplasser (METAR- og TAF-rapporter).

Tilgjengelige stasjoner er representert av de røde og gule prikkene på kartet.

Hold musepekeren over prikken for å se navnet på stasjonen.

Klikk så for å se værobservasjoner og -varsler.

For å forandre kartet kan du klikke på den grønne knappen med svart kryss for å zoome inn, på den grønne knappen med strek for å zoome ut, eller på de grønne pilene for å se tilstøtende kart.


METAR-TAF: